N517CF KIND-KMOR
Flight info
| Callsign | N517CF |
|---|---|
| Flight time | 0h 43m |
| Altitude | 39000 |
| Route | DAWNN1 IIU |
| Aircraft | C750/M-SBDE3FGHRWXY/S |
Departure
| Time | 2026-05-07 02:27 |
|---|---|
| Airport | Indianapolis International Airport (KIND) |
Arrival
| Time | 2026-05-07 03:10 |
|---|---|
| Airport | Morristown Regional Airport (KMOR) |
| Time | Latitude | Longitude | Altitude | Speed | Heading |
|---|---|---|---|---|---|
| 2026-05-07 01:52 | 39.73371 | -86.28174 | 791 ft | 0 kts | 41° |
| 2026-05-07 02:20 | 39.73371 | -86.28173 | 772 ft | 0 kts | 44° |
| 2026-05-07 02:20 | 39.73372 | -86.28164 | 791 ft | 2 kts | 89° |
| 2026-05-07 02:21 | 39.73354 | -86.28167 | 790 ft | 7 kts | 226° |
| 2026-05-07 02:21 | 39.73351 | -86.28239 | 788 ft | 9 kts | 297° |
| 2026-05-07 02:21 | 39.73361 | -86.28307 | 786 ft | 6 kts | 239° |
| 2026-05-07 02:21 | 39.73320 | -86.28359 | 782 ft | 10 kts | 225° |
| 2026-05-07 02:22 | 39.73311 | -86.28437 | 779 ft | 8 kts | 324° |
| 2026-05-07 02:22 | 39.73322 | -86.28447 | 779 ft | 0 kts | 323° |
| 2026-05-07 02:22 | 39.73358 | -86.28488 | 779 ft | 14 kts | 315° |
| 2026-05-07 02:22 | 39.73427 | -86.28579 | 777 ft | 14 kts | 316° |
| 2026-05-07 02:23 | 39.73493 | -86.28665 | 778 ft | 12 kts | 314° |
| 2026-05-07 02:23 | 39.73501 | -86.28754 | 777 ft | 11 kts | 229° |
| 2026-05-07 02:23 | 39.73442 | -86.28831 | 775 ft | 12 kts | 225° |
| 2026-05-07 02:23 | 39.73384 | -86.28906 | 776 ft | 11 kts | 224° |
| 2026-05-07 02:24 | 39.73324 | -86.28985 | 776 ft | 14 kts | 224° |
| 2026-05-07 02:24 | 39.73254 | -86.29071 | 781 ft | 12 kts | 231° |
| 2026-05-07 02:24 | 39.73201 | -86.29145 | 784 ft | 10 kts | 223° |
| 2026-05-07 02:24 | 39.73137 | -86.29224 | 782 ft | 17 kts | 224° |
| 2026-05-07 02:25 | 39.73048 | -86.29338 | 782 ft | 18 kts | 224° |
| 2026-05-07 02:25 | 39.72962 | -86.29444 | 780 ft | 15 kts | 216° |
| 2026-05-07 02:25 | 39.72897 | -86.29403 | 777 ft | 12 kts | 133° |
| 2026-05-07 02:25 | 39.72834 | -86.29320 | 775 ft | 8 kts | 139° |
| 2026-05-07 02:26 | 39.72794 | -86.29331 | 775 ft | 14 kts | 223° |
| 2026-05-07 02:26 | 39.72640 | -86.29533 | 773 ft | 66 kts | 224° |
| 2026-05-07 02:26 | 39.72062 | -86.30273 | 803 ft | 149 kts | 226° |
| 2026-05-07 02:26 | 39.71278 | -86.31300 | 1271 ft | 168 kts | 227° |
| 2026-05-07 02:27 | 39.70458 | -86.32416 | 2090 ft | 171 kts | 231° |
| 2026-05-07 02:27 | 39.69646 | -86.33550 | 2922 ft | 175 kts | 231° |
| 2026-05-07 02:27 | 39.68778 | -86.34779 | 3512 ft | 196 kts | 228° |
| 2026-05-07 02:27 | 39.67645 | -86.35920 | 4283 ft | 214 kts | 215° |
| 2026-05-07 02:28 | 39.66317 | -86.36761 | 5468 ft | 207 kts | 204° |
| 2026-05-07 02:28 | 39.64925 | -86.37136 | 6505 ft | 215 kts | 182° |
| 2026-05-07 02:28 | 39.63335 | -86.36934 | 6996 ft | 243 kts | 178° |
| 2026-05-07 02:28 | 39.61556 | -86.36711 | 7513 ft | 271 kts | 179° |
| 2026-05-07 02:29 | 39.59628 | -86.36469 | 8411 ft | 281 kts | 179° |
| 2026-05-07 02:29 | 39.57703 | -86.36210 | 9520 ft | 285 kts | 180° |
| 2026-05-07 02:29 | 39.55737 | -86.35946 | 10342 ft | 293 kts | 177° |
| 2026-05-07 02:29 | 39.53629 | -86.35672 | 10675 ft | 317 kts | 181° |
| 2026-05-07 02:30 | 39.51339 | -86.35378 | 10798 ft | 343 kts | 181° |
| 2026-05-07 02:30 | 39.48953 | -86.35044 | 11549 ft | 345 kts | 181° |
| 2026-05-07 02:30 | 39.46561 | -86.34709 | 12372 ft | 347 kts | 183° |
| 2026-05-07 02:30 | 39.44148 | -86.34397 | 13103 ft | 350 kts | 184° |
| 2026-05-07 02:31 | 39.41712 | -86.34078 | 13860 ft | 354 kts | 185° |
| 2026-05-07 02:31 | 39.39256 | -86.33747 | 14522 ft | 357 kts | 185° |
| 2026-05-07 02:31 | 39.36778 | -86.33411 | 15199 ft | 359 kts | 185° |
| 2026-05-07 02:31 | 39.34282 | -86.33081 | 15825 ft | 363 kts | 186° |
| 2026-05-07 02:32 | 39.31756 | -86.32746 | 16517 ft | 366 kts | 186° |
| 2026-05-07 02:32 | 39.29213 | -86.32407 | 17153 ft | 370 kts | 186° |
| 2026-05-07 02:32 | 39.26646 | -86.32065 | 17898 ft | 372 kts | 186° |
| 2026-05-07 02:32 | 39.24054 | -86.31719 | 18586 ft | 376 kts | 187° |
| 2026-05-07 02:33 | 39.21447 | -86.31377 | 19265 ft | 377 kts | 187° |
| 2026-05-07 02:33 | 39.18825 | -86.31029 | 19970 ft | 380 kts | 187° |
| 2026-05-07 02:33 | 39.16194 | -86.30673 | 20700 ft | 381 kts | 188° |
| 2026-05-07 02:33 | 39.13584 | -86.30327 | 21421 ft | 382 kts | 188° |
| 2026-05-07 02:34 | 39.10929 | -86.29987 | 22107 ft | 385 kts | 188° |
| 2026-05-07 02:34 | 39.08247 | -86.29627 | 22829 ft | 388 kts | 188° |
| 2026-05-07 02:34 | 39.05550 | -86.29255 | 23481 ft | 391 kts | 189° |
| 2026-05-07 02:34 | 39.02840 | -86.28906 | 24051 ft | 393 kts | 189° |
| 2026-05-07 02:35 | 39.00108 | -86.28561 | 24592 ft | 397 kts | 189° |
| 2026-05-07 02:35 | 38.97349 | -86.28191 | 25134 ft | 401 kts | 189° |
| 2026-05-07 02:35 | 38.94525 | -86.27808 | 25696 ft | 404 kts | 189° |
| 2026-05-07 02:35 | 38.91717 | -86.27440 | 26238 ft | 407 kts | 190° |
| 2026-05-07 02:36 | 38.88926 | -86.27080 | 26775 ft | 411 kts | 190° |
| 2026-05-07 02:36 | 38.86071 | -86.26703 | 27315 ft | 414 kts | 190° |
| 2026-05-07 02:36 | 38.83188 | -86.26321 | 27794 ft | 418 kts | 190° |
| 2026-05-07 02:36 | 38.80282 | -86.25940 | 28309 ft | 422 kts | 190° |
| 2026-05-07 02:37 | 38.77348 | -86.25557 | 28847 ft | 425 kts | 190° |
| 2026-05-07 02:37 | 38.74391 | -86.25168 | 29358 ft | 429 kts | 190° |
| 2026-05-07 02:37 | 38.71405 | -86.24776 | 29821 ft | 433 kts | 190° |
| 2026-05-07 02:37 | 38.69376 | -86.24510 | 30152 ft | 436 kts | 190° |
| 2026-05-07 02:38 | 38.66327 | -86.23942 | 30571 ft | 451 kts | 185° |
| 2026-05-07 02:38 | 38.63240 | -86.22960 | 31053 ft | 465 kts | 180° |
| 2026-05-07 02:38 | 38.60161 | -86.21552 | 31729 ft | 475 kts | 174° |
| 2026-05-07 02:38 | 38.57134 | -86.19717 | 32296 ft | 488 kts | 168° |
| 2026-05-07 02:39 | 38.54198 | -86.17434 | 32900 ft | 502 kts | 162° |
| 2026-05-07 02:39 | 38.51424 | -86.14726 | 33496 ft | 516 kts | 155° |
| 2026-05-07 02:39 | 38.48753 | -86.11470 | 34125 ft | 531 kts | 148° |
| 2026-05-07 02:39 | 38.46303 | -86.07999 | 34638 ft | 534 kts | 147° |
| 2026-05-07 02:40 | 38.43819 | -86.04487 | 35153 ft | 533 kts | 147° |
| 2026-05-07 02:40 | 38.41319 | -86.00995 | 35666 ft | 533 kts | 148° |
| 2026-05-07 02:40 | 38.38824 | -85.97503 | 36185 ft | 533 kts | 147° |
| 2026-05-07 02:40 | 38.36336 | -85.93996 | 36715 ft | 533 kts | 147° |
| 2026-05-07 02:41 | 38.33851 | -85.90496 | 37000 ft | 534 kts | 147° |
| 2026-05-07 02:41 | 38.31310 | -85.86969 | 36944 ft | 547 kts | 147° |
| 2026-05-07 02:41 | 38.28710 | -85.83361 | 36945 ft | 559 kts | 147° |
| 2026-05-07 02:41 | 38.26131 | -85.79707 | 37030 ft | 548 kts | 146° |
| 2026-05-07 02:42 | 38.20908 | -85.72446 | 37051 ft | 566 kts | 147° |
| 2026-05-07 02:42 | 38.15558 | -85.64981 | 37053 ft | 573 kts | 146° |
| 2026-05-07 02:43 | 38.10170 | -85.57534 | 37000 ft | 567 kts | 149° |
| 2026-05-07 02:43 | 38.04461 | -85.50798 | 37027 ft | 561 kts | 152° |
| 2026-05-07 02:44 | 37.98769 | -85.44016 | 37023 ft | 561 kts | 152° |
| 2026-05-07 02:44 | 37.93046 | -85.37291 | 37033 ft | 561 kts | 152° |
| 2026-05-07 02:45 | 37.90234 | -85.33960 | 37019 ft | 540 kts | 152° |
| 2026-05-07 02:45 | 37.87579 | -85.30765 | 36518 ft | 518 kts | 153° |
| 2026-05-07 02:45 | 37.84946 | -85.27698 | 35234 ft | 513 kts | 153° |
| 2026-05-07 02:45 | 37.82298 | -85.24675 | 34028 ft | 512 kts | 153° |
| 2026-05-07 02:46 | 37.79685 | -85.21610 | 32582 ft | 513 kts | 151° |
| 2026-05-07 02:46 | 37.77083 | -85.18509 | 30891 ft | 516 kts | 150° |
| 2026-05-07 02:46 | 37.74426 | -85.15398 | 29219 ft | 528 kts | 150° |
| 2026-05-07 02:46 | 37.71767 | -85.12303 | 28731 ft | 510 kts | 150° |
| 2026-05-07 02:47 | 37.69193 | -85.09270 | 28358 ft | 504 kts | 150° |
| 2026-05-07 02:47 | 37.66616 | -85.06270 | 27988 ft | 503 kts | 150° |
| 2026-05-07 02:47 | 37.64046 | -85.03292 | 27610 ft | 500 kts | 150° |
| 2026-05-07 02:47 | 37.61497 | -85.00319 | 27239 ft | 498 kts | 150° |
| 2026-05-07 02:48 | 37.58974 | -84.97365 | 26813 ft | 492 kts | 150° |
| 2026-05-07 02:48 | 37.56467 | -84.94448 | 26447 ft | 488 kts | 150° |
| 2026-05-07 02:48 | 37.53972 | -84.91565 | 26086 ft | 485 kts | 150° |
| 2026-05-07 02:48 | 37.51497 | -84.88695 | 25730 ft | 483 kts | 150° |
| 2026-05-07 02:49 | 37.49035 | -84.85831 | 25375 ft | 480 kts | 149° |
| 2026-05-07 02:49 | 37.46587 | -84.82993 | 25023 ft | 478 kts | 149° |
| 2026-05-07 02:49 | 37.44146 | -84.80174 | 24672 ft | 475 kts | 149° |
| 2026-05-07 02:49 | 37.41718 | -84.77368 | 24330 ft | 471 kts | 149° |
| 2026-05-07 02:50 | 37.39373 | -84.74633 | 24029 ft | 449 kts | 149° |
| 2026-05-07 02:50 | 37.37029 | -84.71945 | 23699 ft | 462 kts | 150° |
| 2026-05-07 02:50 | 37.34648 | -84.69235 | 23278 ft | 461 kts | 149° |
| 2026-05-07 02:50 | 37.32293 | -84.66502 | 22853 ft | 460 kts | 148° |
| 2026-05-07 02:51 | 37.29944 | -84.63773 | 22455 ft | 459 kts | 148° |
| 2026-05-07 02:51 | 37.27625 | -84.61110 | 22064 ft | 456 kts | 149° |
| 2026-05-07 02:51 | 37.25256 | -84.58404 | 21704 ft | 454 kts | 148° |
| 2026-05-07 02:51 | 37.22933 | -84.55736 | 21330 ft | 451 kts | 148° |
| 2026-05-07 02:52 | 37.20657 | -84.53115 | 20967 ft | 449 kts | 148° |
| 2026-05-07 02:52 | 37.18361 | -84.50482 | 20601 ft | 446 kts | 148° |
| 2026-05-07 02:52 | 37.16075 | -84.47871 | 20239 ft | 443 kts | 148° |
| 2026-05-07 02:52 | 37.13804 | -84.45275 | 19870 ft | 442 kts | 148° |
| 2026-05-07 02:53 | 37.11539 | -84.42682 | 19526 ft | 439 kts | 148° |
| 2026-05-07 02:53 | 37.09290 | -84.40111 | 19141 ft | 440 kts | 148° |
| 2026-05-07 02:53 | 37.07027 | -84.37537 | 18799 ft | 439 kts | 148° |
| 2026-05-07 02:53 | 37.04773 | -84.34966 | 18436 ft | 438 kts | 147° |
| 2026-05-07 02:54 | 37.02533 | -84.32404 | 18070 ft | 433 kts | 147° |
| 2026-05-07 02:54 | 37.00313 | -84.29872 | 17672 ft | 431 kts | 147° |
| 2026-05-07 02:54 | 36.98105 | -84.27366 | 17272 ft | 426 kts | 148° |
| 2026-05-07 02:54 | 36.95916 | -84.24886 | 16913 ft | 423 kts | 147° |
| 2026-05-07 02:55 | 36.93752 | -84.22424 | 16539 ft | 419 kts | 147° |
| 2026-05-07 02:55 | 36.91609 | -84.19986 | 16173 ft | 414 kts | 147° |
| 2026-05-07 02:55 | 36.89483 | -84.17576 | 15805 ft | 411 kts | 147° |
| 2026-05-07 02:55 | 36.87378 | -84.15196 | 15443 ft | 407 kts | 147° |
| 2026-05-07 02:56 | 36.85291 | -84.12832 | 15080 ft | 401 kts | 147° |
| 2026-05-07 02:56 | 36.83201 | -84.10517 | 14734 ft | 405 kts | 147° |
| 2026-05-07 02:56 | 36.81135 | -84.08155 | 14368 ft | 402 kts | 146° |
| 2026-05-07 02:56 | 36.79099 | -84.05796 | 14005 ft | 396 kts | 146° |
| 2026-05-07 02:57 | 36.77056 | -84.03500 | 13620 ft | 393 kts | 146° |
| 2026-05-07 02:57 | 36.75022 | -84.01236 | 13204 ft | 392 kts | 146° |
| 2026-05-07 02:57 | 36.73007 | -83.98969 | 12813 ft | 388 kts | 145° |
| 2026-05-07 02:57 | 36.71017 | -83.96718 | 12437 ft | 386 kts | 145° |
| 2026-05-07 02:58 | 36.69192 | -83.94237 | 11990 ft | 395 kts | 130° |
| 2026-05-07 02:58 | 36.67751 | -83.91338 | 11609 ft | 393 kts | 127° |
| 2026-05-07 02:58 | 36.66340 | -83.88447 | 11236 ft | 384 kts | 127° |
| 2026-05-07 02:58 | 36.64986 | -83.85687 | 11010 ft | 364 kts | 127° |
| 2026-05-07 02:59 | 36.63679 | -83.82972 | 10993 ft | 367 kts | 126° |
| 2026-05-07 02:59 | 36.62370 | -83.80243 | 10993 ft | 368 kts | 126° |
| 2026-05-07 02:59 | 36.61029 | -83.77509 | 10995 ft | 371 kts | 127° |
| 2026-05-07 02:59 | 36.59695 | -83.74774 | 10992 ft | 370 kts | 126° |
| 2026-05-07 03:00 | 36.58373 | -83.72028 | 10994 ft | 369 kts | 126° |
| 2026-05-07 03:00 | 36.57026 | -83.69244 | 10751 ft | 375 kts | 126° |
| 2026-05-07 03:00 | 36.55718 | -83.66575 | 10387 ft | 348 kts | 126° |
| 2026-05-07 03:00 | 36.54497 | -83.64083 | 10026 ft | 328 kts | 126° |
| 2026-05-07 03:01 | 36.53339 | -83.61711 | 9643 ft | 315 kts | 125° |
| 2026-05-07 03:01 | 36.52228 | -83.59435 | 9243 ft | 310 kts | 126° |
| 2026-05-07 03:01 | 36.51113 | -83.57157 | 8846 ft | 307 kts | 125° |
| 2026-05-07 03:01 | 36.50010 | -83.54899 | 8455 ft | 305 kts | 125° |
| 2026-05-07 03:02 | 36.48911 | -83.52652 | 8080 ft | 303 kts | 125° |
| 2026-05-07 03:02 | 36.47824 | -83.50430 | 7712 ft | 298 kts | 125° |
| 2026-05-07 03:02 | 36.46749 | -83.48233 | 7351 ft | 297 kts | 125° |
| 2026-05-07 03:02 | 36.45676 | -83.46048 | 6990 ft | 295 kts | 125° |
| 2026-05-07 03:03 | 36.44612 | -83.43881 | 6619 ft | 291 kts | 125° |
| 2026-05-07 03:03 | 36.43564 | -83.41747 | 5958 ft | 290 kts | 125° |
| 2026-05-07 03:03 | 36.42515 | -83.39612 | 5286 ft | 288 kts | 125° |
| 2026-05-07 03:03 | 36.41482 | -83.37495 | 4700 ft | 285 kts | 124° |
| 2026-05-07 03:04 | 36.40451 | -83.35398 | 4275 ft | 279 kts | 124° |
| 2026-05-07 03:04 | 36.39441 | -83.33395 | 4321 ft | 277 kts | 124° |
| 2026-05-07 03:04 | 36.38430 | -83.31340 | 4300 ft | 280 kts | 123° |
| 2026-05-07 03:04 | 36.37430 | -83.29261 | 4304 ft | 282 kts | 123° |
| 2026-05-07 03:05 | 36.36432 | -83.27233 | 4288 ft | 264 kts | 124° |
| 2026-05-07 03:05 | 36.35517 | -83.25380 | 4290 ft | 240 kts | 124° |
| 2026-05-07 03:05 | 36.34666 | -83.23661 | 4288 ft | 230 kts | 125° |
| 2026-05-07 03:05 | 36.33826 | -83.21976 | 4293 ft | 229 kts | 125° |
| 2026-05-07 03:06 | 36.32744 | -83.20587 | 4170 ft | 221 kts | 159° |
| 2026-05-07 03:06 | 36.31318 | -83.20147 | 4270 ft | 207 kts | 184° |
| 2026-05-07 03:06 | 36.29952 | -83.20567 | 4290 ft | 202 kts | 212° |
| 2026-05-07 03:06 | 36.28913 | -83.21697 | 4312 ft | 199 kts | 231° |
| 2026-05-07 03:07 | 36.28011 | -83.23007 | 4235 ft | 203 kts | 231° |
| 2026-05-07 03:07 | 36.27080 | -83.24344 | 4020 ft | 205 kts | 231° |
| 2026-05-07 03:07 | 36.26150 | -83.25676 | 3787 ft | 203 kts | 231° |
| 2026-05-07 03:07 | 36.25231 | -83.26992 | 3547 ft | 201 kts | 232° |
| 2026-05-07 03:08 | 36.24316 | -83.28305 | 3295 ft | 200 kts | 231° |
| 2026-05-07 03:08 | 36.23473 | -83.29513 | 3195 ft | 165 kts | 232° |
| 2026-05-07 03:08 | 36.22795 | -83.30511 | 2936 ft | 141 kts | 234° |
| 2026-05-07 03:08 | 36.22183 | -83.31429 | 2547 ft | 136 kts | 233° |
| 2026-05-07 03:09 | 36.21604 | -83.32298 | 2344 ft | 127 kts | 234° |
| 2026-05-07 03:09 | 36.21033 | -83.33129 | 2146 ft | 127 kts | 232° |
| 2026-05-07 03:09 | 36.20447 | -83.33936 | 1945 ft | 125 kts | 229° |
| 2026-05-07 03:09 | 36.19872 | -83.34743 | 1772 ft | 126 kts | 233° |
| 2026-05-07 03:10 | 36.19304 | -83.35581 | 1570 ft | 129 kts | 230° |
| 2026-05-07 03:10 | 36.18718 | -83.36422 | 1392 ft | 128 kts | 230° |
| 2026-05-07 03:10 | 36.18158 | -83.37230 | 1286 ft | 114 kts | 230° |
| 2026-05-07 03:10 | 36.17825 | -83.37709 | 1285 ft | 27 kts | 229° |
| 2026-05-07 03:11 | 36.17726 | -83.37852 | 1287 ft | 20 kts | 229° |
| 2026-05-07 03:11 | 36.17668 | -83.37970 | 1283 ft | 11 kts | 293° |
| 2026-05-07 03:11 | 36.17706 | -83.37984 | 1284 ft | 7 kts | 40° |
| 2026-05-07 03:11 | 36.17755 | -83.37913 | 1286 ft | 15 kts | 49° |
| 2026-05-07 03:12 | 36.17845 | -83.37783 | 1285 ft | 19 kts | 50° |
| 2026-05-07 03:12 | 36.17909 | -83.37692 | 1287 ft | 13 kts | 48° |
| 2026-05-07 03:12 | 36.17969 | -83.37610 | 1285 ft | 13 kts | 50° |
| 2026-05-07 03:12 | 36.18029 | -83.37575 | 1282 ft | 8 kts | 323° |
| 2026-05-07 03:13 | 36.18040 | -83.37587 | 1283 ft | 0 kts | 318° |